Time;durP1;ratioP1;P1;durP2;ratioP2;P2;SDS_P1;SDS_P2;PMS_P1;PMS_P2;Temp;Humidity;BMP_temperature;BMP_pressure;BME280_temperature;BME280_humidity;BME280_pressure;Samples;Min_cycle;Max_cycle;Signal;HPM_P1;HPM_P2
2022/11/02 00:01:13;;;;;;;6.03;1.33;;;;;;;-140.72;100.00;52865.69;5049934;28;20461;-76
2022/11/02 00:03:39;;;;;;;4.28;1.17;;;;;;;-140.72;100.00;52894.13;5050698;28;20098;-75
2022/11/02 00:06:04;;;;;;;6.50;1.23;;;;;;;-140.72;100.00;52890.06;5051281;28;20457;-76
2022/11/02 00:08:30;;;;;;;3.33;0.70;;;;;;;-140.72;100.00;52857.59;5051598;28;20048;-77
2022/11/02 00:10:55;;;;;;;5.35;1.02;;;;;;;-140.72;100.00;52932.66;5034324;28;20091;-76
2022/11/02 00:13:20;;;;;;;3.97;1.23;;;;;;;-140.72;100.00;52841.34;5040976;28;20477;-76
2022/11/02 00:15:46;;;;;;;1.13;0.63;;;;;;;-140.72;100.00;52859.63;5042763;28;20071;-76
2022/11/02 00:18:13;;;;;;;5.22;1.27;;;;;;;-140.72;100.00;52906.28;5046089;28;20430;-75
2022/11/02 00:20:41;;;;;;;8.02;1.23;;;;;;;-140.72;100.00;52853.53;5050649;28;20037;-76
2022/11/02 00:23:09;;;;;;;3.33;0.77;;;;;;;-140.72;100.00;52890.06;5050495;28;20059;-73
2022/11/02 00:25:41;;;;;;;2.88;0.52;;;;;;;-140.72;100.00;52888.03;5050796;28;20078;-74
2022/11/02 00:28:07;;;;;;;3.67;1.17;;;;;;;-140.72;100.00;52904.25;5050843;28;20035;-74
2022/11/02 00:30:32;;;;;;;2.08;0.60;;;;;;;-140.72;100.00;52886.00;5050596;28;20029;-75
2022/11/02 00:32:57;;;;;;;0.93;0.50;;;;;;;-140.72;100.00;52902.22;5050365;28;20469;-74
2022/11/02 00:35:23;;;;;;;2.08;0.47;;;;;;;-140.72;100.00;52900.19;5050866;28;20041;-75
2022/11/02 00:37:48;;;;;;;0.20;0.20;;;;;;;-140.72;100.00;52896.16;5049448;28;20021;-74
2022/11/02 00:40:14;;;;;;;4.05;0.40;;;;;;;-140.72;100.00;52898.16;5050652;28;20063;-74
2022/11/02 00:42:39;;;;;;;1.70;0.25;;;;;;;-140.72;100.00;52930.66;5050076;28;20028;-74
2022/11/02 00:45:06;;;;;;;0.75;0.40;;;;;;;-140.72;100.00;52926.59;5051691;28;20033;-74
2022/11/02 00:47:31;;;;;;;3.53;1.25;;;;;;;-140.72;100.00;52914.41;5048867;28;20477;-74
2022/11/02 00:49:57;;;;;;;3.05;0.50;;;;;;;-140.72;100.00;52894.13;5050690;28;20037;-75
2022/11/02 00:52:22;;;;;;;2.80;0.45;;;;;;;-140.72;100.00;52910.34;5049440;28;20048;-73
2022/11/02 00:54:47;;;;;;;3.63;0.68;;;;;;;-140.72;100.00;52934.69;5050196;28;20102;-74
2022/11/02 00:57:13;;;;;;;0.68;0.32;;;;;;;-140.72;100.00;52934.69;5048058;28;20025;-75
2022/11/02 00:59:38;;;;;;;0.90;0.20;;;;;;;-140.72;100.00;52926.59;5048048;28;20031;-75
2022/11/02 01:02:03;;;;;;;3.00;0.50;;;;;;;-140.72;100.00;52890.06;5054631;28;20021;-75
2022/11/02 01:04:29;;;;;;;1.33;0.43;;;;;;;-140.72;100.00;52910.34;5050821;28;20377;-74
2022/11/02 01:06:54;;;;;;;1.17;0.35;;;;;;;-140.72;100.00;52930.66;5039594;28;20534;-74
2022/11/02 01:09:20;;;;;;;1.52;0.30;;;;;;;-140.72;100.00;52942.81;5049962;28;20037;-75
2022/11/02 01:11:46;;;;;;;5.07;0.60;;;;;;;-140.72;100.00;52904.25;5050089;28;20473;-74
2022/11/02 01:14:11;;;;;;;3.05;0.57;;;;;;;-140.72;100.00;52865.69;5048902;28;20366;-74
2022/11/02 01:16:39;;;;;;;2.38;0.85;;;;;;;-140.72;100.00;52908.31;5036299;28;20029;-75
2022/11/02 01:19:04;;;;;;;0.93;0.43;;;;;;;-140.72;100.00;52902.22;5049801;28;20357;-75
2022/11/02 01:21:30;;;;;;;1.58;0.28;;;;;;;-140.72;100.00;52914.41;5051822;28;20020;-74
2022/11/02 01:23:55;;;;;;;2.85;0.52;;;;;;;-140.72;100.00;52910.34;5060210;28;20095;-74
2022/11/02 01:26:20;;;;;;;3.60;0.60;;;;;;;-140.72;100.00;52890.06;5063014;28;20417;-74
2022/11/02 01:28:46;;;;;;;4.25;0.88;;;;;;;-140.72;100.00;52908.31;5049703;28;20025;-74
2022/11/02 01:31:11;;;;;;;1.30;0.47;;;;;;;-140.72;100.00;52898.16;5049362;28;20476;-75
2022/11/02 01:33:37;;;;;;;0.82;0.35;;;;;;;-140.72;100.00;52892.09;5049321;28;20094;-75
2022/11/02 01:36:04;;;;;;;3.03;0.57;;;;;;;-140.72;100.00;52912.38;5048988;28;20041;-75
2022/11/02 01:38:31;;;;;;;4.25;0.40;;;;;;;-140.72;100.00;52898.16;5050138;28;20032;-73
2022/11/02 01:40:57;;;;;;;3.85;0.47;;;;;;;-140.72;100.00;52886.00;5048128;28;20033;-73
2022/11/02 01:43:28;;;;;;;2.83;0.77;;;;;;;-140.72;100.00;52900.19;5049719;28;20029;-74
2022/11/02 01:46:11;;;;;;;2.95;0.43;;;;;;;-140.72;100.00;52912.38;5049128;28;20432;-73
2022/11/02 01:48:39;;;;;;;2.22;0.57;;;;;;;-140.72;100.00;52902.22;5048598;28;20135;-74
2022/11/02 01:51:10;;;;;;;3.15;0.88;;;;;;;-140.72;100.00;52918.47;5048923;28;20032;-74
2022/11/02 01:53:41;;;;;;;3.88;0.52;;;;;;;-140.72;100.00;52888.03;5046413;28;20083;-74
2022/11/02 01:56:09;;;;;;;4.47;0.85;;;;;;;-140.72;100.00;52904.25;5048719;28;20025;-73
2022/11/02 01:58:34;;;;;;;3.90;0.57;;;;;;;-140.72;100.00;52910.34;5047585;28;20104;-74
2022/11/02 02:01:00;;;;;;;1.88;0.70;;;;;;;-140.72;100.00;52894.13;5048145;28;20108;-74
2022/11/02 02:03:29;;;;;;;3.75;0.57;;;;;;;-140.72;100.00;52883.97;5048005;28;20051;-75
2022/11/02 02:06:02;;;;;;;4.20;0.60;;;;;;;-140.72;100.00;52906.28;5048978;28;20029;-76
2022/11/02 02:08:28;;;;;;;3.10;0.60;;;;;;;-140.72;100.00;52886.00;5049459;28;20041;-74
2022/11/02 02:10:57;;;;;;;1.63;0.70;;;;;;;-140.72;100.00;52877.88;5047891;28;20536;-73
2022/11/02 02:13:25;;;;;;;3.30;0.80;;;;;;;-140.72;100.00;52861.66;5049113;28;20108;-75
2022/11/02 02:16:17;;;;;;;4.38;0.65;;;;;;;-140.72;100.00;52827.16;5049274;28;20103;-74
2022/11/02 02:18:51;;;;;;;2.40;0.57;;;;;;;-140.72;100.00;52883.97;5034947;28;20060;-75
2022/11/02 02:21:50;;;;;;;0.35;0.20;;;;;;;-140.72;100.00;52888.03;5035294;28;20059;-75
2022/11/02 02:24:15;;;;;;;5.10;1.00;;;;;;;-140.72;100.00;52851.50;5034108;28;20017;-76
2022/11/02 02:27:10;;;;;;;2.33;0.52;;;;;;;-140.72;100.00;52859.63;5054599;28;20345;-73
2022/11/02 02:30:14;;;;;;;11.75;1.30;;;;;;;-140.72;100.00;52873.81;5051157;28;20025;-75
2022/11/02 02:32:54;;;;;;;2.75;0.60;;;;;;;-140.72;100.00;52845.41;5044539;28;20071;-74
2022/11/02 02:35:29;;;;;;;;;;;;;;;-140.72;100.00;52875.84;5048591;28;20079;-74
2022/11/02 02:38:24;;;;;;;7.10;1.20;;;;;;;-140.72;100.00;52894.13;5047485;28;19913;-74
2022/11/02 02:41:13;;;;;;;1.00;0.50;;;;;;;-140.72;100.00;52835.25;5043000;28;20024;-74
2022/11/02 02:43:56;;;;;;;1.45;0.50;;;;;;;-140.72;100.00;52849.47;5048549;28;20120;-75
2022/11/02 02:46:35;;;;;;;1.42;0.52;;;;;;;-140.72;100.00;52855.56;5048051;28;20044;-77
2022/11/02 02:49:03;;;;;;;2.97;1.20;;;;;;;-140.72;100.00;52879.91;5048840;28;20021;-76
2022/11/02 02:51:31;;;;;;;2.63;1.30;;;;;;;-140.72;100.00;52898.16;5060625;28;20048;-74
2022/11/02 02:54:04;;;;;;;2.00;1.00;;;;;;;-140.72;100.00;52869.75;5048721;28;20095;-73
2022/11/02 02:56:37;;;;;;;2.25;0.85;;;;;;;-140.72;100.00;52875.84;5042964;28;20037;-72
2022/11/02 02:59:14;;;;;;;3.08;0.43;;;;;;;-140.72;100.00;52886.00;5027879;28;20444;-73
2022/11/02 03:01:42;;;;;;;4.75;0.88;;;;;;;-140.72;100.00;52896.16;5036751;28;20101;-73
2022/11/02 03:04:12;;;;;;;7.18;1.08;;;;;;;-140.72;100.00;52908.31;5047627;28;20044;-72
2022/11/02 03:06:40;;;;;;;6.53;0.52;;;;;;;-140.72;100.00;52912.38;5047485;28;20182;-73
2022/11/02 03:09:22;;;;;;;4.30;0.52;;;;;;;-140.72;100.00;52914.41;5048313;28;20162;-74
2022/11/02 03:12:00;;;;;;;2.10;0.45;;;;;;;-140.72;100.00;52873.81;5047932;28;20029;-73
2022/11/02 03:14:45;;;;;;;7.72;1.00;;;;;;;-140.72;100.00;52890.06;5035381;28;20037;-72
2022/11/02 03:17:14;;;;;;;5.82;0.85;;;;;;;-140.72;100.00;52879.91;5048270;28;20052;-74
2022/11/02 03:19:58;;;;;;;1.30;0.50;;;;;;;-140.72;100.00;52912.38;5047308;28;20040;-73
2022/11/02 03:22:30;;;;;;;6.90;0.88;;;;;;;-140.72;100.00;52853.53;5048102;28;20029;-72
2022/11/02 03:25:16;;;;;;;7.15;1.48;;;;;;;-140.72;100.00;52886.00;5047383;28;20482;-76
2022/11/02 03:28:10;;;;;;;2.88;1.02;;;;;;;-140.72;100.00;52835.25;5045392;28;20060;-74
2022/11/02 03:30:44;;;;;;;5.15;1.13;;;;;;;-140.72;100.00;52881.94;4999090;28;20037;-74
2022/11/02 03:33:21;;;;;;;3.33;0.80;;;;;;;-140.72;100.00;52853.53;5028176;28;20033;-73
2022/11/02 03:35:57;;;;;;;5.95;1.38;;;;;;;-140.72;100.00;52888.03;5047386;28;20041;-73
2022/11/02 03:38:31;;;;;;;6.40;1.38;;;;;;;-140.72;100.00;52867.72;5046274;28;20025;-74
2022/11/02 03:41:00;;;;;;;7.45;1.58;;;;;;;-140.72;100.00;52865.69;5036880;28;20096;-74
2022/11/02 03:43:27;;;;;;;2.70;0.50;;;;;;;-140.72;100.00;52869.75;5050838;28;20029;-74
2022/11/02 03:45:56;;;;;;;8.30;1.17;;;;;;;-140.72;100.00;52877.88;5051763;28;20083;-74
2022/11/02 03:48:28;;;;;;;3.55;1.25;;;;;;;-140.72;100.00;52849.47;5052862;28;20342;-73
2022/11/02 03:50:57;;;;;;;2.33;0.68;;;;;;;-140.72;100.00;52879.91;5052237;28;20033;-74
2022/11/02 03:53:41;;;;;;;9.82;1.08;;;;;;;-140.72;100.00;52853.53;5053469;28;20083;-73
2022/11/02 03:56:12;;;;;;;6.20;1.42;;;;;;;-140.72;100.00;52922.53;5039891;28;20021;-73
2022/11/02 03:58:38;;;;;;;4.18;0.68;;;;;;;-140.72;100.00;52886.00;5051049;28;20037;-75
2022/11/02 04:01:09;;;;;;;6.07;1.35;;;;;;;-140.72;100.00;52922.53;5052659;28;20025;-75
2022/11/02 04:03:39;;;;;;;6.15;1.55;;;;;;;-140.72;100.00;52902.22;5051943;28;20061;-75
2022/11/02 04:06:04;;;;;;;;;;;;;;;-140.72;100.00;52859.63;5052405;28;20071;-75
2022/11/02 04:08:42;;;;;;;5.38;1.45;;;;;;;-140.72;100.00;52861.66;5051920;28;19912;-74
2022/11/02 04:16:36;;;;;;;4.03;1.02;;;;;;;-140.72;100.00;52877.88;5059289;28;20044;-75
2022/11/02 04:27:13;;;;;;;6.20;0.95;;;;;;;-140.72;100.00;52910.34;5052059;28;20555;-75
2022/11/02 04:29:38;;;;;;;4.30;0.80;;;;;;;-140.72;100.00;52857.59;5051362;28;20041;-74
2022/11/02 04:32:04;;;;;;;4.80;0.88;;;;;;;-140.72;100.00;52881.94;5050785;28;20113;-74
2022/11/02 04:34:29;;;;;;;5.05;1.20;;;;;;;-140.72;100.00;52890.06;5051042;28;20041;-76
2022/11/02 04:36:54;;;;;;;5.55;1.80;;;;;;;-140.72;100.00;52879.91;5050660;28;20037;-73
2022/11/02 04:39:20;;;;;;;5.05;0.73;;;;;;;-140.72;100.00;52849.47;5051696;28;20523;-73
2022/11/02 04:41:45;;;;;;;6.18;1.13;;;;;;;-140.72;100.00;52894.13;5051342;28;20454;-74
2022/11/02 04:44:15;;;;;;;4.30;0.70;;;;;;;-140.72;100.00;52873.81;5040055;28;20461;-74
2022/11/02 04:46:42;;;;;;;7.38;1.77;;;;;;;-140.72;100.00;52898.16;5049324;28;20021;-75
2022/11/02 04:49:09;;;;;;;4.82;0.93;;;;;;;-140.72;100.00;52894.13;5051412;28;20114;-74
2022/11/02 04:51:36;;;;;;;9.07;0.93;;;;;;;-140.72;100.00;52894.13;5033070;28;20029;-75
2022/11/02 04:54:02;;;;;;;4.35;0.95;;;;;;;-140.72;100.00;52877.88;5056723;28;20063;-74
2022/11/02 04:56:28;;;;;;;3.20;1.05;;;;;;;-140.72;100.00;52867.72;5058462;28;20033;-75
2022/11/02 04:58:57;;;;;;;3.35;1.20;;;;;;;-140.72;100.00;52861.66;5043152;28;20028;-75
2022/11/02 05:01:24;;;;;;;2.42;0.52;;;;;;;-140.72;100.00;52904.25;5070661;28;20036;-75
2022/11/02 05:03:52;;;;;;;3.97;0.95;;;;;;;-140.72;100.00;52873.81;5063748;28;20029;-75
2022/11/02 05:06:19;;;;;;;7.88;1.30;;;;;;;-140.72;100.00;52890.06;5063720;28;20513;-74
2022/11/02 05:08:45;;;;;;;2.42;0.75;;;;;;;-140.72;100.00;52871.78;5051127;28;20021;-75
2022/11/02 05:11:11;;;;;;;5.55;1.50;;;;;;;-140.72;100.00;52892.09;5064181;28;20031;-75
2022/11/02 05:13:37;;;;;;;3.53;1.08;;;;;;;-140.72;100.00;52875.84;5050316;28;20334;-75
2022/11/02 05:16:03;;;;;;;5.57;0.93;;;;;;;-140.72;100.00;52847.44;5051221;28;20132;-75
2022/11/02 05:18:29;;;;;;;9.45;1.92;;;;;;;-140.72;100.00;52873.81;5053334;28;20509;-76
2022/11/02 05:20:57;;;;;;;12.57;1.20;;;;;;;-140.72;100.00;52894.13;5052499;28;20029;-75
2022/11/02 05:23:23;;;;;;;5.32;1.63;;;;;;;-140.72;100.00;52843.38;5068540;28;20036;-74
2022/11/02 05:25:59;;;;;;;2.67;0.68;;;;;;;-140.72;100.00;52902.22;5064486;28;20105;-75
2022/11/02 05:28:26;;;;;;;12.32;1.15;;;;;;;-140.72;100.00;52865.69;5058604;28;20036;-75
2022/11/02 05:30:52;;;;;;;3.85;1.15;;;;;;;-140.72;100.00;52857.59;5058478;28;20032;-74
2022/11/02 05:33:18;;;;;;;5.90;1.40;;;;;;;-140.72;100.00;52865.69;5068018;28;20097;-74
2022/11/02 05:35:43;;;;;;;3.40;0.63;;;;;;;-140.72;100.00;52861.66;5060974;28;20090;-75
2022/11/02 05:38:09;;;;;;;4.78;0.82;;;;;;;-140.72;100.00;52914.41;5059327;28;20115;-73
2022/11/02 05:40:36;;;;;;;3.35;1.30;;;;;;;-140.72;100.00;52920.50;5066694;28;20021;-73
2022/11/02 05:43:04;;;;;;;4.72;0.65;;;;;;;-140.72;100.00;52869.75;5048624;28;20025;-73
2022/11/02 05:45:30;;;;;;;4.30;1.02;;;;;;;-140.72;100.00;52898.16;5050475;28;20503;-74
2022/11/02 05:47:55;;;;;;;2.20;0.60;;;;;;;-140.72;100.00;52859.63;5047422;28;20108;-75
2022/11/02 05:50:21;;;;;;;1.92;0.63;;;;;;;-140.72;100.00;52890.06;5043819;28;20029;-74
2022/11/02 05:52:46;;;;;;;7.60;1.10;;;;;;;-140.72;100.00;52894.13;5046177;28;20029;-74
2022/11/02 05:55:12;;;;;;;2.03;0.73;;;;;;;-140.72;100.00;52890.06;5047173;28;20040;-73
2022/11/02 05:57:37;;;;;;;0.60;0.47;;;;;;;-140.72;100.00;52855.56;5054651;28;20028;-74
2022/11/02 06:00:04;;;;;;;1.40;0.55;;;;;;;-140.72;100.00;52865.69;5051578;28;20423;-75
2022/11/02 06:02:29;;;;;;;1.20;0.45;;;;;;;-140.72;100.00;52863.66;5050877;28;20029;-73
2022/11/02 06:04:55;;;;;;;3.88;0.55;;;;;;;-140.72;100.00;52863.66;5049023;28;20037;-73
2022/11/02 06:07:20;;;;;;;1.52;0.40;;;;;;;-140.72;100.00;52883.97;5044411;28;20473;-73
2022/11/02 06:09:46;;;;;;;1.65;0.55;;;;;;;-140.72;100.00;52892.09;5058222;28;20442;-75
2022/11/02 06:12:11;;;;;;;2.30;0.95;;;;;;;-140.72;100.00;52890.06;5052617;28;20033;-77
2022/11/02 06:14:37;;;;;;;3.42;0.82;;;;;;;-140.72;100.00;52853.53;5047768;28;20025;-74
2022/11/02 06:17:02;;;;;;;2.20;0.65;;;;;;;-140.72;100.00;52835.25;5034867;28;20106;-74
2022/11/02 06:19:27;;;;;;;1.70;0.50;;;;;;;-140.72;100.00;52861.66;5039237;28;20040;-75
2022/11/02 06:21:53;;;;;;;5.55;0.80;;;;;;;-140.72;100.00;52847.44;5045900;28;20052;-76
2022/11/02 06:24:21;;;;;;;1.98;0.52;;;;;;;-140.72;100.00;52857.59;5041349;28;20025;-74
2022/11/02 06:26:47;;;;;;;0.95;0.40;;;;;;;-140.72;100.00;52867.72;5044501;28;20048;-75
2022/11/02 06:29:13;;;;;;;3.58;0.60;;;;;;;-140.72;100.00;52883.97;5040274;28;20500;-76
2022/11/02 06:31:38;;;;;;;1.40;0.43;;;;;;;-140.72;100.00;52853.53;5035147;28;20021;-76
2022/11/02 06:34:04;;;;;;;0.77;0.30;;;;;;;-140.72;100.00;52861.66;5038007;28;20040;-75
2022/11/02 06:36:29;;;;;;;2.83;0.60;;;;;;;-140.72;100.00;52890.06;5037588;28;20513;-75
2022/11/02 06:38:54;;;;;;;1.65;0.52;;;;;;;-140.72;100.00;52890.06;5035922;28;20028;-75
2022/11/02 06:41:19;;;;;;;9.30;1.10;;;;;;;-140.72;100.00;52869.75;5040196;28;20029;-75
2022/11/02 06:43:45;;;;;;;0.95;0.45;;;;;;;-140.72;100.00;52900.19;5036282;28;20033;-74
2022/11/02 06:46:10;;;;;;;2.25;0.55;;;;;;;-140.72;100.00;52877.88;5045200;28;20063;-75
2022/11/02 06:48:36;;;;;;;1.73;0.90;;;;;;;-140.72;100.00;52879.91;5049067;28;20343;-76
2022/11/02 06:51:03;;;;;;;2.92;1.42;;;;;;;-140.72;100.00;52879.91;5048247;28;20047;-76
2022/11/02 06:53:29;;;;;;;3.10;0.57;;;;;;;-140.72;100.00;52849.47;5048329;28;20036;-74
2022/11/02 06:55:55;;;;;;;2.53;1.20;;;;;;;-140.72;100.00;52849.47;5019544;28;20071;-75
2022/11/02 06:58:22;;;;;;;7.07;0.95;;;;;;;-140.72;100.00;52892.09;5044220;28;20388;-74
2022/11/02 07:00:57;;;;;;;1.33;0.60;;;;;;;-140.72;100.00;52861.66;5037361;28;20076;-74
2022/11/02 07:03:26;;;;;;;2.72;0.93;;;;;;;-140.72;100.00;52873.81;5037512;28;20047;-76
2022/11/02 07:05:51;;;;;;;2.58;0.93;;;;;;;-140.72;100.00;52851.50;5052284;28;20013;-74
2022/11/02 07:08:18;;;;;;;8.05;0.80;;;;;;;-140.72;100.00;52890.06;5066160;28;20023;-75
2022/11/02 07:10:44;;;;;;;4.47;0.68;;;;;;;-140.72;100.00;52861.66;5069336;28;20016;-75
2022/11/02 07:13:09;;;;;;;1.23;0.30;;;;;;;-140.72;100.00;52873.81;5063943;28;20024;-76
2022/11/02 07:15:35;;;;;;;3.45;0.73;;;;;;;-140.72;100.00;52896.16;5064494;28;20488;-75
2022/11/02 07:18:01;;;;;;;5.43;0.80;;;;;;;-140.72;100.00;52875.84;5066656;28;20036;-75
2022/11/02 07:20:26;;;;;;;1.83;0.65;;;;;;;-140.72;100.00;52871.78;5061287;28;20028;-75
2022/11/02 07:22:57;;;;;;;3.38;1.23;;;;;;;-140.72;100.00;52867.72;5055694;28;20440;-74
2022/11/02 07:25:23;;;;;;;4.53;0.95;;;;;;;-140.72;100.00;52847.44;5064446;28;20055;-74
2022/11/02 07:27:49;;;;;;;3.90;0.88;;;;;;;-140.72;100.00;52821.06;5066648;28;20021;-75
2022/11/02 07:30:14;;;;;;;6.43;0.93;;;;;;;-140.72;100.00;52861.66;5059102;28;20104;-75
2022/11/02 07:32:41;;;;;;;2.17;0.57;;;;;;;-140.72;100.00;52851.50;5064954;28;20052;-76
2022/11/02 07:35:09;;;;;;;2.78;0.65;;;;;;;-140.72;100.00;52835.25;5053979;28;20064;-75
2022/11/02 07:37:35;;;;;;;4.07;0.57;;;;;;;-140.72;100.00;52890.06;5052936;28;20409;-77
2022/11/02 07:40:00;;;;;;;1.65;0.70;;;;;;;-140.72;100.00;52857.59;5052624;28;20136;-75
2022/11/02 07:42:26;;;;;;;4.97;1.13;;;;;;;-140.72;100.00;52877.88;5050968;28;20143;-75
2022/11/02 07:44:51;;;;;;;2.47;0.60;;;;;;;-140.72;100.00;52853.53;5051702;28;20017;-75
2022/11/02 07:47:16;;;;;;;2.78;0.60;;;;;;;-140.72;100.00;52900.19;5051447;28;20426;-74
2022/11/02 07:49:42;;;;;;;5.97;1.10;;;;;;;-140.72;100.00;52833.22;5036781;28;20091;-77
2022/11/02 07:52:07;;;;;;;2.47;0.85;;;;;;;-140.72;100.00;52829.19;5044858;28;20037;-75
2022/11/02 07:54:32;;;;;;;1.65;1.05;;;;;;;-140.72;100.00;52863.66;5048818;28;20511;-74
2022/11/02 07:56:58;;;;;;;6.45;1.20;;;;;;;-140.72;100.00;52812.94;5049982;28;20094;-76
2022/11/02 07:59:23;;;;;;;2.55;0.52;;;;;;;-140.72;100.00;52845.41;5054716;28;20033;-75
2022/11/02 08:01:49;;;;;;;6.03;1.38;;;;;;;-140.72;100.00;52823.09;5047377;28;20079;-76
2022/11/02 08:04:14;;;;;;;3.80;0.52;;;;;;;-140.72;100.00;52861.66;5056367;28;20049;-74
2022/11/02 08:06:40;;;;;;;5.45;1.20;;;;;;;-140.72;100.00;52898.16;5052407;28;20463;-74
2022/11/02 08:09:05;;;;;;;3.72;1.35;;;;;;;-140.72;100.00;52853.53;5054192;28;20524;-75
2022/11/02 08:11:30;;;;;;;5.93;0.57;;;;;;;-140.72;100.00;52835.25;5049507;28;20025;-74
2022/11/02 08:13:56;;;;;;;2.38;0.75;;;;;;;-140.72;100.00;52825.13;5048935;28;20029;-74
2022/11/02 08:16:21;;;;;;;4.78;1.20;;;;;;;-140.72;100.00;52861.66;5049053;28;20111;-75
2022/11/02 08:18:46;;;;;;;3.08;0.52;;;;;;;-140.72;100.00;52843.38;5055441;28;20064;-75
2022/11/02 08:21:12;;;;;;;2.05;0.75;;;;;;;-140.72;100.00;52833.22;5046489;28;20075;-75
2022/11/02 08:23:37;;;;;;;3.75;0.55;;;;;;;-140.72;100.00;52857.59;5051183;28;20033;-75
2022/11/02 08:26:03;;;;;;;2.28;0.80;;;;;;;-140.72;100.00;52831.19;5050227;28;20029;-77
2022/11/02 08:28:31;;;;;;;2.58;0.80;;;;;;;-140.72;100.00;52821.06;5052029;28;20044;-73
2022/11/02 08:30:57;;;;;;;1.08;0.40;;;;;;;-140.72;100.00;52823.09;5051336;28;20043;-76
2022/11/02 08:33:23;;;;;;;3.95;0.82;;;;;;;-140.72;100.00;52821.06;5050167;28;20389;-76
2022/11/02 08:35:48;;;;;;;5.55;0.60;;;;;;;-140.72;100.00;52861.66;5058204;28;20037;-75
2022/11/02 08:38:15;;;;;;;1.80;0.65;;;;;;;-140.72;100.00;52845.41;5050514;28;20029;-76
2022/11/02 08:40:40;;;;;;;6.15;1.13;;;;;;;-140.72;100.00;52798.72;5050041;28;20525;-74
2022/11/02 08:43:11;;;;;;;6.03;0.85;;;;;;;-140.72;100.00;52812.94;5053254;28;20228;-75
2022/11/02 08:45:38;;;;;;;4.68;1.15;;;;;;;-140.72;100.00;52827.16;5060394;28;20070;-75
2022/11/02 08:48:05;;;;;;;1.35;0.50;;;;;;;-140.72;100.00;52790.63;5051590;28;20040;-75
2022/11/02 08:50:30;;;;;;;3.72;0.75;;;;;;;-140.72;100.00;52863.66;5062745;28;20040;-74
2022/11/02 08:52:56;;;;;;;2.65;0.50;;;;;;;-140.72;100.00;52804.81;5056099;28;20025;-74
2022/11/02 08:55:21;;;;;;;2.95;0.80;;;;;;;-140.72;100.00;52825.13;5053351;28;20521;-77
2022/11/02 08:57:49;;;;;;;5.18;0.93;;;;;;;-140.72;100.00;52808.88;5046318;28;20029;-76
2022/11/02 09:00:16;;;;;;;1.92;0.52;;;;;;;-140.72;100.00;52821.06;5040972;28;20106;-75
2022/11/02 09:02:42;;;;;;;6.55;0.98;;;;;;;-140.72;100.00;52847.44;5055619;28;20029;-75
2022/11/02 09:05:08;;;;;;;6.25;1.42;;;;;;;-140.72;100.00;52782.50;5050501;28;20071;-75
2022/11/02 09:07:33;;;;;;;0.93;0.40;;;;;;;-140.72;100.00;52833.22;5055240;28;20113;-75
2022/11/02 09:09:59;;;;;;;2.20;0.68;;;;;;;-140.72;100.00;52837.28;5061023;28;20025;-76
2022/11/02 09:12:24;;;;;;;4.18;0.75;;;;;;;-140.72;100.00;52810.91;5051323;28;20028;-75
2022/11/02 09:14:50;;;;;;;2.30;0.70;;;;;;;-140.72;100.00;52808.88;5057743;28;20063;-77
2022/11/02 09:17:15;;;;;;;2.10;0.60;;;;;;;-140.72;100.00;52762.22;5048696;28;20025;-75
2022/11/02 09:19:41;;;;;;;3.47;0.85;;;;;;;-140.72;100.00;52794.69;5060433;28;20017;-77
2022/11/02 09:22:06;;;;;;;11.15;1.08;;;;;;;-140.72;100.00;52804.81;5059240;28;20035;-76
2022/11/02 09:24:32;;;;;;;4.18;1.30;;;;;;;-140.72;100.00;52817.00;5044178;28;20044;-76
2022/11/02 09:26:57;;;;;;;1.20;0.60;;;;;;;-140.72;100.00;52817.00;5052648;28;20099;-76
2022/11/02 09:29:23;;;;;;;2.67;0.70;;;;;;;-140.72;100.00;52808.88;5056380;28;20418;-75
2022/11/02 09:31:48;;;;;;;1.45;0.52;;;;;;;-140.72;100.00;52802.78;5063268;28;20251;-75
2022/11/02 09:34:15;;;;;;;3.05;1.02;;;;;;;-140.72;100.00;52806.84;5059278;28;20029;-75
2022/11/02 09:36:40;;;;;;;6.78;1.02;;;;;;;-140.72;100.00;52780.47;5056086;28;20504;-75
2022/11/02 09:39:07;;;;;;;3.78;0.77;;;;;;;-140.72;100.00;52800.75;5056703;28;20037;-76
2022/11/02 09:41:40;;;;;;;5.15;0.80;;;;;;;-140.72;100.00;52800.75;5057598;28;20029;-75
2022/11/02 09:44:10;;;;;;;2.15;1.02;;;;;;;-140.72;100.00;52810.91;5063038;28;20035;-74
2022/11/02 09:46:45;;;;;;;5.00;0.85;;;;;;;-140.72;100.00;52800.75;5057008;28;20462;-76
2022/11/02 09:49:17;;;;;;;3.45;0.60;;;;;;;-140.72;100.00;52817.00;5057857;28;20028;-78
2022/11/02 09:51:51;;;;;;;3.67;0.77;;;;;;;-140.72;100.00;52814.97;5044703;28;20438;-77
2022/11/02 09:54:35;;;;;;;5.32;0.80;;;;;;;-140.72;100.00;52821.06;5041424;28;20081;-76
2022/11/02 09:57:08;;;;;;;3.15;0.95;;;;;;;-140.72;100.00;52786.56;5066131;28;20025;-75
2022/11/02 09:59:33;;;;;;;4.43;1.45;;;;;;;-140.72;100.00;52778.44;5057616;28;20033;-77
2022/11/02 10:02:18;;;;;;;1.40;0.50;;;;;;;-140.72;100.00;52821.06;5047438;28;20362;-76
2022/11/02 10:05:11;;;;;;;2.35;0.73;;;;;;;-140.72;100.00;52819.03;5050994;28;20044;-77
2022/11/02 10:07:39;;;;;;;1.85;0.73;;;;;;;-140.72;100.00;52829.19;5053200;28;20047;-77
2022/11/02 10:10:14;;;;;;;3.58;0.93;;;;;;;-140.72;100.00;52782.50;5053121;28;20028;-76
2022/11/02 10:13:01;;;;;;;9.95;1.08;;;;;;;-140.72;100.00;52748.00;5063310;28;20103;-79
2022/11/02 10:15:31;;;;;;;3.35;0.80;;;;;;;-140.72;100.00;52776.41;5060991;28;20024;-77
2022/11/02 10:17:59;;;;;;;4.40;0.85;;;;;;;-140.72;100.00;52819.03;5048233;28;20037;-76
2022/11/02 10:20:26;;;;;;;9.90;1.05;;;;;;;-140.72;100.00;52778.44;5063709;28;20074;-76
2022/11/02 10:22:58;;;;;;;3.42;0.80;;;;;;;-140.72;100.00;52762.22;5059831;28;20096;-77
2022/11/02 10:25:24;;;;;;;3.67;0.45;;;;;;;-140.72;100.00;52790.63;5046581;28;20496;-76
2022/11/02 10:28:00;;;;;;;2.50;1.15;;;;;;;-140.72;100.00;52735.81;5049966;28;20033;-76
2022/11/02 10:30:26;;;;;;;6.57;0.90;;;;;;;-140.72;100.00;52719.59;5050348;28;20043;-76
2022/11/02 10:32:54;;;;;;;3.05;0.70;;;;;;;-140.72;100.00;52756.13;5048385;28;20033;-77
2022/11/02 10:35:35;;;;;;;8.27;1.23;;;;;;;-140.72;100.00;52780.47;5046157;28;20136;-76
2022/11/02 10:38:33;;;;;;;3.45;0.68;;;;;;;-140.72;100.00;52768.28;5048361;28;20036;-74
2022/11/02 10:41:30;;;;;;;1.95;0.80;;;;;;;-140.72;100.00;52788.59;5043765;28;20049;-75
2022/11/02 10:44:20;;;;;;;4.18;1.35;;;;;;;-140.72;100.00;52788.59;5063506;28;20405;-74
2022/11/02 10:47:00;;;;;;;2.38;0.73;;;;;;;-140.72;100.00;52780.47;5053676;28;20036;-75
2022/11/02 10:49:48;;;;;;;3.75;0.50;;;;;;;-140.72;100.00;52798.72;5048097;28;20033;-75
2022/11/02 10:52:15;;;;;;;3.13;0.93;;;;;;;-140.72;100.00;52798.72;5050028;28;20029;-76
2022/11/02 10:54:40;;;;;;;4.03;0.63;;;;;;;-140.72;100.00;52762.22;5053853;28;20033;-76
2022/11/02 10:57:17;;;;;;;2.67;0.68;;;;;;;-140.72;100.00;52780.47;5052677;28;20025;-75
2022/11/02 10:59:43;;;;;;;5.25;0.90;;;;;;;-140.72;100.00;52788.59;5051932;28;20021;-74
2022/11/02 11:02:08;;;;;;;3.90;1.20;;;;;;;-140.72;100.00;52752.06;5054765;28;20025;-76
2022/11/02 11:04:36;;;;;;;3.47;0.98;;;;;;;-140.72;100.00;52713.50;5059816;28;20437;-76
2022/11/02 11:07:26;;;;;;;3.30;0.82;;;;;;;-140.72;100.00;52764.25;5065486;28;20405;-75
2022/11/02 11:09:55;;;;;;;7.82;0.93;;;;;;;-140.72;100.00;52762.22;5059982;28;20036;-74
2022/11/02 11:12:31;;;;;;;1.70;0.60;;;;;;;-140.72;100.00;52737.84;5067789;28;20024;-76
2022/11/02 11:14:59;;;;;;;2.90;0.77;;;;;;;-140.72;100.00;52770.31;5059416;28;20208;-76
2022/11/02 11:17:43;;;;;;;10.70;1.13;;;;;;;-140.72;100.00;52784.53;5052865;28;20025;-76
2022/11/02 11:20:34;;;;;;;3.00;0.60;;;;;;;-140.72;100.00;52719.59;5069734;28;20024;-74
2022/11/02 11:23:26;;;;;;;4.20;0.82;;;;;;;-140.72;100.00;52745.97;5058403;28;20028;-74
2022/11/02 11:26:00;;;;;;;1.70;0.60;;;;;;;-140.72;100.00;52715.53;5061832;28;20161;-75
2022/11/02 11:28:29;;;;;;;4.65;0.98;;;;;;;-140.72;100.00;52750.03;5069964;28;20028;-76
2022/11/02 11:31:07;;;;;;;2.55;0.82;;;;;;;-140.72;100.00;52754.09;5067781;28;20094;-75
2022/11/02 11:33:42;;;;;;;1.58;0.50;;;;;;;-140.72;100.00;52743.94;5053278;28;20477;-73